sensor_id;sensor_type;location;lat;lon;timestamp;temperature;humidity
25300;DHT22;13241;51.208;4.432;2022-09-09T00:04:53;15.70;99.90
25300;DHT22;13241;51.208;4.432;2022-09-09T00:10:21;15.60;99.90
25300;DHT22;13241;51.208;4.432;2022-09-09T00:19:08;15.60;99.90
25300;DHT22;13241;51.208;4.432;2022-09-09T00:22:02;15.60;99.90
25300;DHT22;13241;51.208;4.432;2022-09-09T00:25:00;15.60;99.90
25300;DHT22;13241;51.208;4.432;2022-09-09T00:27:34;15.60;99.90
25300;DHT22;13241;51.208;4.432;2022-09-09T00:32:46;15.60;99.90
25300;DHT22;13241;51.208;4.432;2022-09-09T00:35:27;15.60;99.90
25300;DHT22;13241;51.208;4.432;2022-09-09T00:38:06;15.60;99.90
25300;DHT22;13241;51.208;4.432;2022-09-09T00:43:33;15.60;99.90
25300;DHT22;13241;51.208;4.432;2022-09-09T00:52:18;15.60;99.90
25300;DHT22;13241;51.208;4.432;2022-09-09T00:57:35;15.60;99.90
25300;DHT22;13241;51.208;4.432;2022-09-09T01:05:33;15.50;99.90
25300;DHT22;13241;51.208;4.432;2022-09-09T01:08:05;15.60;99.90
25300;DHT22;13241;51.208;4.432;2022-09-09T01:10:50;15.60;99.90
25300;DHT22;13241;51.208;4.432;2022-09-09T01:13:33;15.70;99.90
25300;DHT22;13241;51.208;4.432;2022-09-09T01:16:08;15.70;99.90
25300;DHT22;13241;51.208;4.432;2022-09-09T01:18:43;15.80;99.90
25300;DHT22;13241;51.208;4.432;2022-09-09T01:21:35;15.80;99.90
25300;DHT22;13241;51.208;4.432;2022-09-09T01:26:58;15.80;99.90
25300;DHT22;13241;51.208;4.432;2022-09-09T01:29:27;15.70;99.90
25300;DHT22;13241;51.208;4.432;2022-09-09T01:31:58;15.70;99.90
25300;DHT22;13241;51.208;4.432;2022-09-09T01:34:33;15.70;99.90
25300;DHT22;13241;51.208;4.432;2022-09-09T01:37:08;15.60;99.90
25300;DHT22;13241;51.208;4.432;2022-09-09T01:39:40;15.50;99.90
25300;DHT22;13241;51.208;4.432;2022-09-09T01:42:14;15.50;99.90
25300;DHT22;13241;51.208;4.432;2022-09-09T01:44:42;15.40;99.90
25300;DHT22;13241;51.208;4.432;2022-09-09T01:47:09;15.40;99.90
25300;DHT22;13241;51.208;4.432;2022-09-09T01:49:52;15.30;99.90
25300;DHT22;13241;51.208;4.432;2022-09-09T01:52:24;15.40;99.90
25300;DHT22;13241;51.208;4.432;2022-09-09T01:54:51;15.40;99.90
25300;DHT22;13241;51.208;4.432;2022-09-09T01:57:30;15.40;99.90
25300;DHT22;13241;51.208;4.432;2022-09-09T02:00:10;15.40;99.90
25300;DHT22;13241;51.208;4.432;2022-09-09T02:03:05;15.30;99.90
25300;DHT22;13241;51.208;4.432;2022-09-09T02:09:04;15.30;99.90
25300;DHT22;13241;51.208;4.432;2022-09-09T02:11:33;15.30;99.90
25300;DHT22;13241;51.208;4.432;2022-09-09T02:14:27;15.30;99.90
25300;DHT22;13241;51.208;4.432;2022-09-09T02:17:03;15.30;99.90
25300;DHT22;13241;51.208;4.432;2022-09-09T02:19:54;15.30;99.90
25300;DHT22;13241;51.208;4.432;2022-09-09T02:22:34;15.30;99.90
25300;DHT22;13241;51.208;4.432;2022-09-09T02:25:03;15.30;99.90
25300;DHT22;13241;51.208;4.432;2022-09-09T02:27:33;15.30;99.90
25300;DHT22;13241;51.208;4.432;2022-09-09T02:30:02;15.30;99.90
25300;DHT22;13241;51.208;4.432;2022-09-09T02:32:44;15.50;99.90
25300;DHT22;13241;51.208;4.432;2022-09-09T02:35:17;15.40;99.90
25300;DHT22;13241;51.208;4.432;2022-09-09T02:37:45;15.40;99.90
25300;DHT22;13241;51.208;4.432;2022-09-09T02:40:17;15.40;99.90
25300;DHT22;13241;51.208;4.432;2022-09-09T02:42:49;15.40;99.90
25300;DHT22;13241;51.208;4.432;2022-09-09T02:45:27;15.30;99.90
25300;DHT22;13241;51.208;4.432;2022-09-09T02:48:08;15.30;99.90
25300;DHT22;13241;51.208;4.432;2022-09-09T02:53:43;15.30;99.90
25300;DHT22;13241;51.208;4.432;2022-09-09T02:56:19;15.30;99.90
25300;DHT22;13241;51.208;4.432;2022-09-09T02:58:48;15.30;99.90
25300;DHT22;13241;51.208;4.432;2022-09-09T03:01:16;15.20;99.90
25300;DHT22;13241;51.208;4.432;2022-09-09T03:03:44;15.30;99.90
25300;DHT22;13241;51.208;4.432;2022-09-09T03:06:15;15.30;99.90
25300;DHT22;13241;51.208;4.432;2022-09-09T03:08:47;15.30;99.90
25300;DHT22;13241;51.208;4.432;2022-09-09T03:11:20;15.30;99.90
25300;DHT22;13241;51.208;4.432;2022-09-09T03:13:47;15.30;99.90
25300;DHT22;13241;51.208;4.432;2022-09-09T03:16:16;15.30;99.90
25300;DHT22;13241;51.208;4.432;2022-09-09T03:18:47;15.20;99.90
25300;DHT22;13241;51.208;4.432;2022-09-09T03:21:14;15.20;99.90
25300;DHT22;13241;51.208;4.432;2022-09-09T03:23:42;15.30;99.90
25300;DHT22;13241;51.208;4.432;2022-09-09T03:26:09;15.20;99.90
25300;DHT22;13241;51.208;4.432;2022-09-09T03:28:43;15.30;99.90
25300;DHT22;13241;51.208;4.432;2022-09-09T03:31:13;15.30;99.90
25300;DHT22;13241;51.208;4.432;2022-09-09T03:33:42;15.30;99.90
25300;DHT22;13241;51.208;4.432;2022-09-09T03:36:12;15.30;99.90
25300;DHT22;13241;51.208;4.432;2022-09-09T03:38:39;15.20;99.90
25300;DHT22;13241;51.208;4.432;2022-09-09T03:41:06;15.30;99.90
25300;DHT22;13241;51.208;4.432;2022-09-09T03:43:34;15.20;99.90
25300;DHT22;13241;51.208;4.432;2022-09-09T03:46:01;15.20;99.90
25300;DHT22;13241;51.208;4.432;2022-09-09T03:48:30;15.20;99.90
25300;DHT22;13241;51.208;4.432;2022-09-09T03:50:58;15.20;99.90
25300;DHT22;13241;51.208;4.432;2022-09-09T03:53:29;15.20;99.90
25300;DHT22;13241;51.208;4.432;2022-09-09T03:55:57;15.20;99.90
25300;DHT22;13241;51.208;4.432;2022-09-09T03:58:28;15.20;99.90
25300;DHT22;13241;51.208;4.432;2022-09-09T04:01:07;15.20;99.90
25300;DHT22;13241;51.208;4.432;2022-09-09T04:03:44;15.30;99.90
25300;DHT22;13241;51.208;4.432;2022-09-09T04:06:12;15.30;99.90
25300;DHT22;13241;51.208;4.432;2022-09-09T04:08:45;15.40;99.90
25300;DHT22;13241;51.208;4.432;2022-09-09T04:11:15;15.40;99.90
25300;DHT22;13241;51.208;4.432;2022-09-09T04:13:44;15.40;99.90
25300;DHT22;13241;51.208;4.432;2022-09-09T04:16:12;15.50;99.90
25300;DHT22;13241;51.208;4.432;2022-09-09T04:18:41;15.40;99.90
25300;DHT22;13241;51.208;4.432;2022-09-09T04:21:09;15.40;99.90
25300;DHT22;13241;51.208;4.432;2022-09-09T04:23:37;15.50;99.90
25300;DHT22;13241;51.208;4.432;2022-09-09T04:26:05;15.50;99.90
25300;DHT22;13241;51.208;4.432;2022-09-09T04:28:35;15.50;99.90
25300;DHT22;13241;51.208;4.432;2022-09-09T04:31:10;15.60;99.90
25300;DHT22;13241;51.208;4.432;2022-09-09T04:33:41;15.50;99.90
25300;DHT22;13241;51.208;4.432;2022-09-09T04:36:09;15.40;99.90
25300;DHT22;13241;51.208;4.432;2022-09-09T04:38:37;15.40;99.90
25300;DHT22;13241;51.208;4.432;2022-09-09T04:41:05;15.40;99.90
25300;DHT22;13241;51.208;4.432;2022-09-09T04:43:34;15.40;99.90
25300;DHT22;13241;51.208;4.432;2022-09-09T04:46:04;15.30;99.90
25300;DHT22;13241;51.208;4.432;2022-09-09T04:48:31;15.40;99.90
25300;DHT22;13241;51.208;4.432;2022-09-09T04:51:02;15.40;99.90
25300;DHT22;13241;51.208;4.432;2022-09-09T04:53:31;15.50;99.90
25300;DHT22;13241;51.208;4.432;2022-09-09T04:56:12;15.40;99.90
25300;DHT22;13241;51.208;4.432;2022-09-09T04:58:50;15.40;99.90
25300;DHT22;13241;51.208;4.432;2022-09-09T05:01:21;15.30;99.90
25300;DHT22;13241;51.208;4.432;2022-09-09T05:03:50;15.40;99.90
25300;DHT22;13241;51.208;4.432;2022-09-09T05:06:22;15.50;99.90
25300;DHT22;13241;51.208;4.432;2022-09-09T05:08:53;15.50;99.90
25300;DHT22;13241;51.208;4.432;2022-09-09T05:11:25;15.50;99.90
25300;DHT22;13241;51.208;4.432;2022-09-09T05:13:57;15.50;99.90
25300;DHT22;13241;51.208;4.432;2022-09-09T05:16:24;15.50;99.90
25300;DHT22;13241;51.208;4.432;2022-09-09T05:18:52;15.50;99.90
25300;DHT22;13241;51.208;4.432;2022-09-09T05:21:20;15.60;99.90
25300;DHT22;13241;51.208;4.432;2022-09-09T05:23:50;15.60;99.90
25300;DHT22;13241;51.208;4.432;2022-09-09T05:26:20;15.60;99.90
25300;DHT22;13241;51.208;4.432;2022-09-09T05:28:49;15.60;99.90
25300;DHT22;13241;51.208;4.432;2022-09-09T05:31:18;15.70;99.90
25300;DHT22;13241;51.208;4.432;2022-09-09T05:33:48;15.80;99.90
25300;DHT22;13241;51.208;4.432;2022-09-09T05:36:17;15.90;99.90
25300;DHT22;13241;51.208;4.432;2022-09-09T05:38:46;16.00;99.90
25300;DHT22;13241;51.208;4.432;2022-09-09T05:41:14;16.10;99.90
25300;DHT22;13241;51.208;4.432;2022-09-09T05:43:45;16.00;99.90
25300;DHT22;13241;51.208;4.432;2022-09-09T05:46:15;16.00;99.90
25300;DHT22;13241;51.208;4.432;2022-09-09T05:48:46;16.00;99.90
25300;DHT22;13241;51.208;4.432;2022-09-09T05:51:19;16.00;99.90
25300;DHT22;13241;51.208;4.432;2022-09-09T05:53:49;16.10;99.90
25300;DHT22;13241;51.208;4.432;2022-09-09T05:56:18;16.20;99.90
25300;DHT22;13241;51.208;4.432;2022-09-09T05:58:45;16.10;99.90
25300;DHT22;13241;51.208;4.432;2022-09-09T06:01:16;16.40;99.90
25300;DHT22;13241;51.208;4.432;2022-09-09T06:03:45;16.20;99.90
25300;DHT22;13241;51.208;4.432;2022-09-09T06:06:17;16.30;99.90
25300;DHT22;13241;51.208;4.432;2022-09-09T06:08:44;16.40;99.90
25300;DHT22;13241;51.208;4.432;2022-09-09T06:11:21;16.30;99.90
25300;DHT22;13241;51.208;4.432;2022-09-09T06:13:49;16.40;99.90
25300;DHT22;13241;51.208;4.432;2022-09-09T06:16:25;16.40;99.90
25300;DHT22;13241;51.208;4.432;2022-09-09T06:18:54;16.40;99.90
25300;DHT22;13241;51.208;4.432;2022-09-09T06:21:25;16.50;99.90
25300;DHT22;13241;51.208;4.432;2022-09-09T06:23:52;16.60;99.90
25300;DHT22;13241;51.208;4.432;2022-09-09T06:26:39;16.60;99.90
25300;DHT22;13241;51.208;4.432;2022-09-09T06:29:10;16.70;99.90
25300;DHT22;13241;51.208;4.432;2022-09-09T06:31:37;16.80;99.90
25300;DHT22;13241;51.208;4.432;2022-09-09T06:34:11;16.80;99.90
25300;DHT22;13241;51.208;4.432;2022-09-09T06:36:42;16.90;99.90
25300;DHT22;13241;51.208;4.432;2022-09-09T06:39:09;16.90;99.90
25300;DHT22;13241;51.208;4.432;2022-09-09T06:41:41;16.90;99.90
25300;DHT22;13241;51.208;4.432;2022-09-09T06:44:25;16.90;99.90
25300;DHT22;13241;51.208;4.432;2022-09-09T06:46:56;16.90;99.90
25300;DHT22;13241;51.208;4.432;2022-09-09T06:49:22;16.90;99.90
25300;DHT22;13241;51.208;4.432;2022-09-09T06:51:49;16.90;99.90
25300;DHT22;13241;51.208;4.432;2022-09-09T06:54:20;16.90;99.90
25300;DHT22;13241;51.208;4.432;2022-09-09T06:56:48;17.00;99.90
25300;DHT22;13241;51.208;4.432;2022-09-09T06:59:21;17.10;99.90
25300;DHT22;13241;51.208;4.432;2022-09-09T07:01:49;16.90;99.90
25300;DHT22;13241;51.208;4.432;2022-09-09T07:04:22;17.00;99.90
25300;DHT22;13241;51.208;4.432;2022-09-09T07:06:49;17.00;99.90
25300;DHT22;13241;51.208;4.432;2022-09-09T07:09:20;17.00;99.90
25300;DHT22;13241;51.208;4.432;2022-09-09T07:11:51;17.10;99.90
25300;DHT22;13241;51.208;4.432;2022-09-09T07:14:22;17.20;99.90
25300;DHT22;13241;51.208;4.432;2022-09-09T07:16:56;17.30;99.90
25300;DHT22;13241;51.208;4.432;2022-09-09T07:19:27;17.50;99.90
25300;DHT22;13241;51.208;4.432;2022-09-09T07:21:55;17.70;99.90
25300;DHT22;13241;51.208;4.432;2022-09-09T07:24:24;17.90;99.90
25300;DHT22;13241;51.208;4.432;2022-09-09T07:26:51;18.20;99.90
25300;DHT22;13241;51.208;4.432;2022-09-09T07:29:19;18.20;99.90
25300;DHT22;13241;51.208;4.432;2022-09-09T07:31:48;18.20;99.90
25300;DHT22;13241;51.208;4.432;2022-09-09T07:34:20;18.10;99.90
25300;DHT22;13241;51.208;4.432;2022-09-09T07:36:47;18.10;99.90
25300;DHT22;13241;51.208;4.432;2022-09-09T07:39:17;18.10;99.90
25300;DHT22;13241;51.208;4.432;2022-09-09T07:41:49;18.00;99.90
25300;DHT22;13241;51.208;4.432;2022-09-09T07:44:22;18.10;99.90
25300;DHT22;13241;51.208;4.432;2022-09-09T07:46:55;18.10;99.90
25300;DHT22;13241;51.208;4.432;2022-09-09T07:49:27;18.20;99.90
25300;DHT22;13241;51.208;4.432;2022-09-09T07:52:00;18.10;99.90
25300;DHT22;13241;51.208;4.432;2022-09-09T07:54:28;18.00;99.90
25300;DHT22;13241;51.208;4.432;2022-09-09T07:56:56;17.90;99.90
25300;DHT22;13241;51.208;4.432;2022-09-09T07:59:27;18.00;99.90
25300;DHT22;13241;51.208;4.432;2022-09-09T08:01:57;18.00;99.90
25300;DHT22;13241;51.208;4.432;2022-09-09T08:04:28;18.00;99.90
25300;DHT22;13241;51.208;4.432;2022-09-09T08:06:59;17.90;99.90
25300;DHT22;13241;51.208;4.432;2022-09-09T08:09:28;17.80;99.90
25300;DHT22;13241;51.208;4.432;2022-09-09T08:12:05;17.90;99.90
25300;DHT22;13241;51.208;4.432;2022-09-09T08:14:33;17.90;99.90
25300;DHT22;13241;51.208;4.432;2022-09-09T08:17:00;17.90;99.90
25300;DHT22;13241;51.208;4.432;2022-09-09T08:19:29;18.10;99.90
25300;DHT22;13241;51.208;4.432;2022-09-09T08:21:58;18.10;99.90
25300;DHT22;13241;51.208;4.432;2022-09-09T08:24:25;18.00;99.90
25300;DHT22;13241;51.208;4.432;2022-09-09T08:26:52;18.10;99.90
25300;DHT22;13241;51.208;4.432;2022-09-09T08:29:23;18.20;99.90
25300;DHT22;13241;51.208;4.432;2022-09-09T08:31:53;18.20;99.90
25300;DHT22;13241;51.208;4.432;2022-09-09T08:34:21;18.20;99.90
25300;DHT22;13241;51.208;4.432;2022-09-09T08:36:50;18.30;99.90
25300;DHT22;13241;51.208;4.432;2022-09-09T08:39:22;18.40;99.90
25300;DHT22;13241;51.208;4.432;2022-09-09T08:42:03;18.60;99.90
25300;DHT22;13241;51.208;4.432;2022-09-09T08:47:34;18.90;99.90
25300;DHT22;13241;51.208;4.432;2022-09-09T08:50:19;19.00;99.90
25300;DHT22;13241;51.208;4.432;2022-09-09T08:52:59;19.10;99.90
25300;DHT22;13241;51.208;4.432;2022-09-09T08:55:51;19.10;99.90
25300;DHT22;13241;51.208;4.432;2022-09-09T08:58:33;19.00;99.90
25300;DHT22;13241;51.208;4.432;2022-09-09T09:10:24;18.80;99.90
25300;DHT22;13241;51.208;4.432;2022-09-09T09:13:50;18.80;99.90
25300;DHT22;13241;51.208;4.432;2022-09-09T09:16:23;18.80;99.90
25300;DHT22;13241;51.208;4.432;2022-09-09T09:18:53;18.80;99.90
25300;DHT22;13241;51.208;4.432;2022-09-09T09:21:50;18.70;99.90
25300;DHT22;13241;51.208;4.432;2022-09-09T09:24:20;18.60;99.90
25300;DHT22;13241;51.208;4.432;2022-09-09T09:26:50;18.70;99.90
25300;DHT22;13241;51.208;4.432;2022-09-09T09:29:20;18.60;99.90
25300;DHT22;13241;51.208;4.432;2022-09-09T09:31:53;18.50;99.90
25300;DHT22;13241;51.208;4.432;2022-09-09T09:34:24;18.40;99.90
25300;DHT22;13241;51.208;4.432;2022-09-09T09:36:57;18.30;99.90
25300;DHT22;13241;51.208;4.432;2022-09-09T09:39:32;18.20;99.90
25300;DHT22;13241;51.208;4.432;2022-09-09T09:42:25;18.30;99.90
25300;DHT22;13241;51.208;4.432;2022-09-09T09:44:55;18.10;99.90
25300;DHT22;13241;51.208;4.432;2022-09-09T09:47:23;18.00;99.90
25300;DHT22;13241;51.208;4.432;2022-09-09T09:50:17;18.00;99.90
25300;DHT22;13241;51.208;4.432;2022-09-09T09:52:54;17.90;99.90
25300;DHT22;13241;51.208;4.432;2022-09-09T09:55:23;18.00;99.90
25300;DHT22;13241;51.208;4.432;2022-09-09T09:57:51;18.00;99.90
25300;DHT22;13241;51.208;4.432;2022-09-09T10:00:22;18.10;99.90
25300;DHT22;13241;51.208;4.432;2022-09-09T10:03:01;18.10;99.90
25300;DHT22;13241;51.208;4.432;2022-09-09T10:05:35;18.20;99.90
25300;DHT22;13241;51.208;4.432;2022-09-09T10:08:13;18.20;99.90
25300;DHT22;13241;51.208;4.432;2022-09-09T10:10:46;18.30;99.90
25300;DHT22;13241;51.208;4.432;2022-09-09T10:13:27;18.30;99.90
25300;DHT22;13241;51.208;4.432;2022-09-09T10:34:51;18.70;99.90
25300;DHT22;13241;51.208;4.432;2022-09-09T10:37:25;18.90;99.90
25300;DHT22;13241;51.208;4.432;2022-09-09T10:40:17;18.80;99.90
25300;DHT22;13241;51.208;4.432;2022-09-09T10:42:46;18.90;99.90
25300;DHT22;13241;51.208;4.432;2022-09-09T10:48:12;19.10;99.90
25300;DHT22;13241;51.208;4.432;2022-09-09T10:56:12;19.00;99.90
25300;DHT22;13241;51.208;4.432;2022-09-09T10:58:48;19.10;99.90
25300;DHT22;13241;51.208;4.432;2022-09-09T11:01:24;19.00;99.90
25300;DHT22;13241;51.208;4.432;2022-09-09T11:03:56;19.10;99.90
25300;DHT22;13241;51.208;4.432;2022-09-09T11:06:32;19.30;99.90
25300;DHT22;13241;51.208;4.432;2022-09-09T11:09:02;19.00;99.90
25300;DHT22;13241;51.208;4.432;2022-09-09T11:17:02;19.00;99.90
25300;DHT22;13241;51.208;4.432;2022-09-09T11:19:40;19.10;99.90
25300;DHT22;13241;51.208;4.432;2022-09-09T11:25:14;19.20;99.90
25300;DHT22;13241;51.208;4.432;2022-09-09T11:30:51;20.00;99.90
25300;DHT22;13241;51.208;4.432;2022-09-09T11:33:34;20.20;99.90
25300;DHT22;13241;51.208;4.432;2022-09-09T11:39:29;20.20;99.90
25300;DHT22;13241;51.208;4.432;2022-09-09T11:44:42;20.30;99.90
25300;DHT22;13241;51.208;4.432;2022-09-09T11:47:21;20.60;99.90
25300;DHT22;13241;51.208;4.432;2022-09-09T11:49:49;20.90;99.90
25300;DHT22;13241;51.208;4.432;2022-09-09T11:52:34;21.10;99.90
25300;DHT22;13241;51.208;4.432;2022-09-09T11:55:10;21.20;99.90
25300;DHT22;13241;51.208;4.432;2022-09-09T11:57:39;21.40;99.90
25300;DHT22;13241;51.208;4.432;2022-09-09T12:00:06;21.60;99.90
25300;DHT22;13241;51.208;4.432;2022-09-09T12:02:48;21.50;99.90
25300;DHT22;13241;51.208;4.432;2022-09-09T12:05:16;21.60;99.90
25300;DHT22;13241;51.208;4.432;2022-09-09T12:07:50;21.80;99.90
25300;DHT22;13241;51.208;4.432;2022-09-09T12:10:27;22.00;99.90
25300;DHT22;13241;51.208;4.432;2022-09-09T12:12:55;22.30;99.90
25300;DHT22;13241;51.208;4.432;2022-09-09T12:15:28;22.50;99.90
25300;DHT22;13241;51.208;4.432;2022-09-09T12:17:58;22.60;99.90
25300;DHT22;13241;51.208;4.432;2022-09-09T12:20:37;22.60;99.90
25300;DHT22;13241;51.208;4.432;2022-09-09T12:23:11;22.20;99.90
25300;DHT22;13241;51.208;4.432;2022-09-09T12:34:18;21.90;99.90
25300;DHT22;13241;51.208;4.432;2022-09-09T12:36:53;21.90;99.90
25300;DHT22;13241;51.208;4.432;2022-09-09T12:41:54;22.20;99.90
25300;DHT22;13241;51.208;4.432;2022-09-09T12:44:25;22.20;99.90
25300;DHT22;13241;51.208;4.432;2022-09-09T12:46:56;22.00;99.90
25300;DHT22;13241;51.208;4.432;2022-09-09T12:49:38;21.70;99.90
25300;DHT22;13241;51.208;4.432;2022-09-09T12:52:23;21.60;99.90
25300;DHT22;13241;51.208;4.432;2022-09-09T12:54:51;21.50;99.90
25300;DHT22;13241;51.208;4.432;2022-09-09T12:57:22;21.50;99.90
25300;DHT22;13241;51.208;4.432;2022-09-09T12:59:52;21.60;99.90
25300;DHT22;13241;51.208;4.432;2022-09-09T13:02:25;21.60;99.90
25300;DHT22;13241;51.208;4.432;2022-09-09T13:04:53;21.60;99.90
25300;DHT22;13241;51.208;4.432;2022-09-09T13:07:21;21.90;99.90
25300;DHT22;13241;51.208;4.432;2022-09-09T13:09:49;22.20;99.90
25300;DHT22;13241;51.208;4.432;2022-09-09T13:12:21;22.30;99.90
25300;DHT22;13241;51.208;4.432;2022-09-09T13:14:54;22.70;99.90
25300;DHT22;13241;51.208;4.432;2022-09-09T13:17:25;23.00;99.90
25300;DHT22;13241;51.208;4.432;2022-09-09T13:19:55;23.00;99.90
25300;DHT22;13241;51.208;4.432;2022-09-09T13:22:35;22.90;99.90
25300;DHT22;13241;51.208;4.432;2022-09-09T13:27:32;22.40;99.90
25300;DHT22;13241;51.208;4.432;2022-09-09T13:30:01;22.30;99.90
25300;DHT22;13241;51.208;4.432;2022-09-09T13:32:29;22.50;99.90
25300;DHT22;13241;51.208;4.432;2022-09-09T13:34:59;22.60;99.90
25300;DHT22;13241;51.208;4.432;2022-09-09T13:37:36;22.80;99.90
25300;DHT22;13241;51.208;4.432;2022-09-09T13:40:05;23.10;99.90
25300;DHT22;13241;51.208;4.432;2022-09-09T13:42:37;23.40;99.90
25300;DHT22;13241;51.208;4.432;2022-09-09T13:45:05;23.50;99.90
25300;DHT22;13241;51.208;4.432;2022-09-09T13:47:33;23.60;99.90
25300;DHT22;13241;51.208;4.432;2022-09-09T13:50:23;23.50;99.90
25300;DHT22;13241;51.208;4.432;2022-09-09T13:52:53;23.60;99.90
25300;DHT22;13241;51.208;4.432;2022-09-09T13:55:22;24.00;99.90
25300;DHT22;13241;51.208;4.432;2022-09-09T13:57:57;23.90;99.90
25300;DHT22;13241;51.208;4.432;2022-09-09T14:00:25;24.20;99.90
25300;DHT22;13241;51.208;4.432;2022-09-09T14:02:52;24.10;99.90
25300;DHT22;13241;51.208;4.432;2022-09-09T14:05:22;23.70;99.90
25300;DHT22;13241;51.208;4.432;2022-09-09T14:07:49;23.30;99.90
25300;DHT22;13241;51.208;4.432;2022-09-09T14:10:19;23.00;99.90
25300;DHT22;13241;51.208;4.432;2022-09-09T14:12:46;22.80;99.90
25300;DHT22;13241;51.208;4.432;2022-09-09T14:15:13;22.60;99.90
25300;DHT22;13241;51.208;4.432;2022-09-09T14:17:41;22.70;99.90
25300;DHT22;13241;51.208;4.432;2022-09-09T14:20:09;22.80;99.90
25300;DHT22;13241;51.208;4.432;2022-09-09T14:22:38;23.30;99.90
25300;DHT22;13241;51.208;4.432;2022-09-09T14:25:06;23.60;99.90
25300;DHT22;13241;51.208;4.432;2022-09-09T14:27:33;24.30;99.90
25300;DHT22;13241;51.208;4.432;2022-09-09T14:30:00;25.10;99.90
25300;DHT22;13241;51.208;4.432;2022-09-09T14:32:27;25.70;99.90
25300;DHT22;13241;51.208;4.432;2022-09-09T14:34:55;25.70;99.90
25300;DHT22;13241;51.208;4.432;2022-09-09T14:37:22;25.50;99.90
25300;DHT22;13241;51.208;4.432;2022-09-09T14:39:48;25.30;99.90
25300;DHT22;13241;51.208;4.432;2022-09-09T14:42:17;24.60;99.90
25300;DHT22;13241;51.208;4.432;2022-09-09T14:44:44;23.90;99.90
25300;DHT22;13241;51.208;4.432;2022-09-09T14:47:14;23.40;99.90
25300;DHT22;13241;51.208;4.432;2022-09-09T14:49:41;23.20;99.90
25300;DHT22;13241;51.208;4.432;2022-09-09T14:52:12;22.60;99.90
25300;DHT22;13241;51.208;4.432;2022-09-09T14:54:39;22.50;99.90
25300;DHT22;13241;51.208;4.432;2022-09-09T14:57:06;22.40;99.90
25300;DHT22;13241;51.208;4.432;2022-09-09T14:59:33;22.40;99.90
25300;DHT22;13241;51.208;4.432;2022-09-09T15:02:00;22.30;99.90
25300;DHT22;13241;51.208;4.432;2022-09-09T15:04:32;22.10;99.90
25300;DHT22;13241;51.208;4.432;2022-09-09T15:06:59;21.80;99.90
25300;DHT22;13241;51.208;4.432;2022-09-09T15:09:26;21.60;99.90
25300;DHT22;13241;51.208;4.432;2022-09-09T15:11:53;21.40;99.90
25300;DHT22;13241;51.208;4.432;2022-09-09T15:14:20;20.60;99.90
25300;DHT22;13241;51.208;4.432;2022-09-09T15:16:51;20.20;99.90
25300;DHT22;13241;51.208;4.432;2022-09-09T15:19:17;19.90;99.90
25300;DHT22;13241;51.208;4.432;2022-09-09T15:21:44;19.80;99.90
25300;DHT22;13241;51.208;4.432;2022-09-09T15:24:11;19.60;99.90
25300;DHT22;13241;51.208;4.432;2022-09-09T15:26:40;19.60;99.90
25300;DHT22;13241;51.208;4.432;2022-09-09T15:29:08;19.90;99.90
25300;DHT22;13241;51.208;4.432;2022-09-09T15:31:35;20.10;99.90
25300;DHT22;13241;51.208;4.432;2022-09-09T15:34:07;21.10;99.90
25300;DHT22;13241;51.208;4.432;2022-09-09T15:36:40;22.70;99.90
25300;DHT22;13241;51.208;4.432;2022-09-09T15:39:09;23.70;99.90
25300;DHT22;13241;51.208;4.432;2022-09-09T15:41:39;23.50;99.90
25300;DHT22;13241;51.208;4.432;2022-09-09T15:44:07;23.00;99.90
25300;DHT22;13241;51.208;4.432;2022-09-09T15:51:33;21.60;99.90
25300;DHT22;13241;51.208;4.432;2022-09-09T15:54:31;21.10;99.90
25300;DHT22;13241;51.208;4.432;2022-09-09T15:57:01;21.20;99.90
25300;DHT22;13241;51.208;4.432;2022-09-09T15:59:32;21.10;99.90
25300;DHT22;13241;51.208;4.432;2022-09-09T16:02:01;20.90;99.90
25300;DHT22;13241;51.208;4.432;2022-09-09T16:04:30;20.80;99.90
25300;DHT22;13241;51.208;4.432;2022-09-09T16:07:04;20.60;99.90
25300;DHT22;13241;51.208;4.432;2022-09-09T16:09:33;20.50;99.90
25300;DHT22;13241;51.208;4.432;2022-09-09T16:12:03;20.50;99.90
25300;DHT22;13241;51.208;4.432;2022-09-09T16:14:32;20.30;99.90
25300;DHT22;13241;51.208;4.432;2022-09-09T16:17:03;20.20;99.90
25300;DHT22;13241;51.208;4.432;2022-09-09T16:19:32;20.40;99.90
25300;DHT22;13241;51.208;4.432;2022-09-09T16:22:00;20.20;99.90
25300;DHT22;13241;51.208;4.432;2022-09-09T16:24:27;20.20;99.90
25300;DHT22;13241;51.208;4.432;2022-09-09T16:27:00;20.40;99.90
25300;DHT22;13241;51.208;4.432;2022-09-09T16:29:27;20.40;99.90
25300;DHT22;13241;51.208;4.432;2022-09-09T16:31:54;20.40;99.90
25300;DHT22;13241;51.208;4.432;2022-09-09T16:34:28;20.40;99.90
25300;DHT22;13241;51.208;4.432;2022-09-09T16:36:55;20.40;99.90
25300;DHT22;13241;51.208;4.432;2022-09-09T16:39:22;20.40;99.90
25300;DHT22;13241;51.208;4.432;2022-09-09T16:41:50;20.10;99.90
25300;DHT22;13241;51.208;4.432;2022-09-09T16:44:18;19.90;99.90
25300;DHT22;13241;51.208;4.432;2022-09-09T16:46:47;19.70;99.90
25300;DHT22;13241;51.208;4.432;2022-09-09T16:49:15;19.50;99.90
25300;DHT22;13241;51.208;4.432;2022-09-09T16:51:45;19.40;99.90
25300;DHT22;13241;51.208;4.432;2022-09-09T16:54:14;19.40;99.90
25300;DHT22;13241;51.208;4.432;2022-09-09T16:56:44;19.60;99.90
25300;DHT22;13241;51.208;4.432;2022-09-09T16:59:14;19.40;99.90
25300;DHT22;13241;51.208;4.432;2022-09-09T17:01:43;19.40;99.90
25300;DHT22;13241;51.208;4.432;2022-09-09T17:04:13;19.40;99.90
25300;DHT22;13241;51.208;4.432;2022-09-09T17:06:42;19.40;99.90
25300;DHT22;13241;51.208;4.432;2022-09-09T17:09:11;19.40;99.90
25300;DHT22;13241;51.208;4.432;2022-09-09T17:11:51;19.30;99.90
25300;DHT22;13241;51.208;4.432;2022-09-09T17:14:20;19.30;99.90
25300;DHT22;13241;51.208;4.432;2022-09-09T17:16:47;19.30;99.90
25300;DHT22;13241;51.208;4.432;2022-09-09T17:19:14;19.30;99.90
25300;DHT22;13241;51.208;4.432;2022-09-09T17:21:41;19.30;99.90
25300;DHT22;13241;51.208;4.432;2022-09-09T17:24:28;19.30;99.90
25300;DHT22;13241;51.208;4.432;2022-09-09T17:26:56;19.20;99.90
25300;DHT22;13241;51.208;4.432;2022-09-09T17:29:25;19.20;99.90
25300;DHT22;13241;51.208;4.432;2022-09-09T17:31:52;19.20;99.90
25300;DHT22;13241;51.208;4.432;2022-09-09T17:34:19;19.20;99.90
25300;DHT22;13241;51.208;4.432;2022-09-09T17:36:45;19.20;99.90
25300;DHT22;13241;51.208;4.432;2022-09-09T17:39:12;19.20;99.90
25300;DHT22;13241;51.208;4.432;2022-09-09T17:41:39;19.10;99.90
25300;DHT22;13241;51.208;4.432;2022-09-09T17:44:07;19.30;99.90
25300;DHT22;13241;51.208;4.432;2022-09-09T17:46:38;19.10;99.90
25300;DHT22;13241;51.208;4.432;2022-09-09T17:49:12;19.00;99.90
25300;DHT22;13241;51.208;4.432;2022-09-09T17:51:40;19.00;99.90
25300;DHT22;13241;51.208;4.432;2022-09-09T17:54:11;18.90;99.90
25300;DHT22;13241;51.208;4.432;2022-09-09T17:56:39;19.00;99.90